createdAt,value
2023-05-26T00:00:15.201Z,71.99
2023-05-26T00:02:45.362Z,71.86
2023-05-26T00:05:15.743Z,71.79
2023-05-26T00:07:43.537Z,72.12
2023-05-26T00:10:13.960Z,72.16
2023-05-26T00:12:41.948Z,72.32
2023-05-26T00:15:14.033Z,72.30
2023-05-26T00:17:41.769Z,72.30
2023-05-26T00:20:09.706Z,72.52
2023-05-26T00:22:37.136Z,72.41
2023-05-26T00:25:07.878Z,72.20
2023-05-26T00:27:35.408Z,72.27
2023-05-26T00:30:03.598Z,72.29
2023-05-26T00:32:31.030Z,72.22
2023-05-26T00:34:58.504Z,72.13
2023-05-26T00:37:25.874Z,72.07
2023-05-26T00:39:53.114Z,72.00
2023-05-26T00:42:20.768Z,71.86
2023-05-26T00:44:50.316Z,71.64
2023-05-26T00:47:18.491Z,71.60
2023-05-26T00:49:47.806Z,71.58
2023-05-26T00:52:15.255Z,71.49
2023-05-26T00:54:46.137Z,71.54
2023-05-26T00:57:13.802Z,71.28
2023-05-26T00:59:42.414Z,71.61
2023-05-26T01:05:07.522Z,72.62
2023-05-26T01:07:34.902Z,72.45
2023-05-26T01:10:02.107Z,72.36
2023-05-26T01:12:44.450Z,72.36
2023-05-26T01:15:17.207Z,72.13
2023-05-26T01:18:10.679Z,72.16
2023-05-26T01:20:47.504Z,72.12
2023-05-26T01:23:23.874Z,72.46
2023-05-26T01:26:17.342Z,72.43
2023-05-26T01:28:46.270Z,72.54
2023-05-26T01:31:15.238Z,72.44
2023-05-26T01:33:42.801Z,72.66
2023-05-26T01:36:10.516Z,72.69
2023-05-26T01:38:38.233Z,72.59
2023-05-26T01:41:44.498Z,72.48
2023-05-26T01:44:33.392Z,72.39
2023-05-26T01:47:02.939Z,72.59
2023-05-26T01:49:31.153Z,72.41
2023-05-26T01:52:01.683Z,72.13
2023-05-26T01:54:35.653Z,72.17
2023-05-26T01:57:12.555Z,72.20
2023-05-26T01:59:39.913Z,72.12
2023-05-26T02:02:08.049Z,71.95
2023-05-26T02:04:36.325Z,72.16
2023-05-26T02:07:07.617Z,72.39
2023-05-26T02:09:35.254Z,72.36
2023-05-26T02:12:04.503Z,72.35
2023-05-26T02:14:32.534Z,72.31
2023-05-26T02:17:00.483Z,72.36
2023-05-26T02:19:29.284Z,72.43
2023-05-26T02:21:57.972Z,72.36
2023-05-26T02:24:25.136Z,72.01
2023-05-26T02:26:52.870Z,71.57
2023-05-26T02:29:20.568Z,71.29
2023-05-26T02:31:47.933Z,71.15
2023-05-26T02:34:15.756Z,71.26
2023-05-26T02:36:43.241Z,71.49
2023-05-26T02:39:10.692Z,71.67
2023-05-26T02:41:38.183Z,71.66
2023-05-26T02:44:07.907Z,71.44
2023-05-26T02:46:35.322Z,71.29
2023-05-26T02:49:02.902Z,71.09
2023-05-26T02:51:30.307Z,71.04
2023-05-26T02:53:58.109Z,71.25
2023-05-26T02:56:25.420Z,71.53
2023-05-26T02:58:52.973Z,71.52
2023-05-26T03:01:20.373Z,71.51
2023-05-26T03:03:47.805Z,71.42
2023-05-26T03:06:15.204Z,71.30
2023-05-26T03:08:42.853Z,71.13
2023-05-26T03:11:11.584Z,71.20
2023-05-26T03:13:40.182Z,71.52
2023-05-26T03:16:07.964Z,71.68
2023-05-26T03:18:35.670Z,71.85
2023-05-26T03:21:06.008Z,71.83
2023-05-26T03:23:37.001Z,71.80
2023-05-26T03:26:06.740Z,71.72
2023-05-26T03:28:34.074Z,71.80
2023-05-26T03:31:03.099Z,71.96
2023-05-26T03:33:33.045Z,71.95
2023-05-26T03:36:02.224Z,71.98
2023-05-26T03:38:30.885Z,71.85
2023-05-26T03:40:59.755Z,71.97
2023-05-26T03:43:28.399Z,72.15
2023-05-26T03:45:55.938Z,72.28
2023-05-26T03:48:23.665Z,72.37
2023-05-26T03:50:51.233Z,72.37
2023-05-26T03:53:19.257Z,72.51
2023-05-26T03:55:46.871Z,72.94
2023-05-26T03:58:15.088Z,73.13
2023-05-26T04:00:42.951Z,73.16
2023-05-26T04:03:11.952Z,73.17
2023-05-26T04:05:41.145Z,73.25
2023-05-26T04:08:29.395Z,73.28
2023-05-26T04:10:57.722Z,73.09
2023-05-26T04:13:26.281Z,72.88
2023-05-26T04:15:57.842Z,73.15
2023-05-26T04:18:28.301Z,73.42
2023-05-26T04:20:55.794Z,73.66
2023-05-26T04:23:23.261Z,73.89
2023-05-26T04:25:52.101Z,73.97
2023-05-26T04:28:20.201Z,73.84
2023-05-26T04:30:49.124Z,73.50
2023-05-26T04:33:17.185Z,73.38
2023-05-26T04:35:46.379Z,73.23
2023-05-26T04:38:15.580Z,73.44
2023-05-26T04:40:46.762Z,73.70
2023-05-26T04:43:14.899Z,73.72
2023-05-26T04:45:44.118Z,73.53
2023-05-26T04:48:13.192Z,73.74
2023-05-26T04:50:42.555Z,73.96
2023-05-26T04:53:10.392Z,73.77
2023-05-26T04:55:38.017Z,73.14
2023-05-26T04:58:09.168Z,73.14
2023-05-26T05:00:36.887Z,73.50
2023-05-26T05:03:06.067Z,73.23
2023-05-26T05:05:33.728Z,73.60
2023-05-26T05:08:02.010Z,73.71
2023-05-26T05:10:29.653Z,73.37
2023-05-26T05:12:57.211Z,73.21
2023-05-26T05:15:25.274Z,73.14
2023-05-26T05:17:53.105Z,72.95
2023-05-26T05:20:20.905Z,73.21
2023-05-26T05:22:48.459Z,73.26
2023-05-26T05:25:15.730Z,73.12
2023-05-26T05:27:42.974Z,72.89
2023-05-26T05:30:11.028Z,72.76
2023-05-26T05:32:38.447Z,72.44
2023-05-26T05:35:06.665Z,72.48
2023-05-26T05:37:34.226Z,72.39
2023-05-26T05:40:01.722Z,72.38
2023-05-26T05:42:29.272Z,72.25
2023-05-26T05:44:56.671Z,71.86
2023-05-26T05:47:24.450Z,71.54
2023-05-26T05:49:52.925Z,71.51
2023-05-26T05:52:42.179Z,72.35
2023-05-26T05:55:45.553Z,70.65
2023-05-26T05:58:12.798Z,70.27
2023-05-26T06:00:40.134Z,69.41
2023-05-26T06:03:07.957Z,69.18
2023-05-26T06:05:36.162Z,69.24
2023-05-26T06:08:13.470Z,69.00
2023-05-26T06:10:42.233Z,69.05
2023-05-26T06:13:10.117Z,69.15
2023-05-26T06:16:31.372Z,69.04
2023-05-26T06:19:01.493Z,69.15
2023-05-26T06:21:50.747Z,69.15
2023-05-26T06:24:19.197Z,68.76
2023-05-26T06:27:15.160Z,68.53
2023-05-26T06:29:46.222Z,68.11
2023-05-26T06:32:31.285Z,67.05
2023-05-26T06:34:58.825Z,67.22
2023-05-26T06:38:26.386Z,67.29
2023-05-26T06:41:25.327Z,66.65
2023-05-26T06:44:19.456Z,66.72
2023-05-26T06:46:59.202Z,66.29
2023-05-26T06:49:27.299Z,66.28
2023-05-26T06:51:56.544Z,65.99
2023-05-26T06:55:17.762Z,66.06
2023-05-26T06:58:26.006Z,65.86
2023-05-26T07:01:54.191Z,65.27
2023-05-26T07:05:45.030Z,65.00
2023-05-26T07:09:29.062Z,64.77
2023-05-26T07:12:57.388Z,64.47
2023-05-26T07:15:54.045Z,64.23
2023-05-26T07:18:28.785Z,63.38
2023-05-26T07:21:55.764Z,62.47
2023-05-26T07:25:02.952Z,63.35
2023-05-26T07:32:34.975Z,61.93
2023-05-26T07:36:24.263Z,62.22
2023-05-26T07:39:33.198Z,62.45
2023-05-26T07:42:52.158Z,61.89
2023-05-26T07:45:21.723Z,62.00
2023-05-26T07:48:49.378Z,61.92
2023-05-26T07:52:16.746Z,61.40
2023-05-26T07:55:53.943Z,61.49
2023-05-26T07:59:42.802Z,61.59
2023-05-26T08:03:10.471Z,61.34
2023-05-26T08:06:37.780Z,60.33
2023-05-26T08:09:28.526Z,60.62
2023-05-26T08:12:37.461Z,61.01
2023-05-26T08:15:36.083Z,61.63
2023-05-26T08:18:52.341Z,61.95
2023-05-26T08:22:19.934Z,61.76
2023-05-26T08:25:31.313Z,62.29
2023-05-26T08:28:11.714Z,61.33
2023-05-26T08:30:39.298Z,60.56
2023-05-26T08:33:07.742Z,59.48
2023-05-26T08:36:15.621Z,59.05
2023-05-26T08:38:43.192Z,58.99
2023-05-26T08:41:15.442Z,58.67
2023-05-26T08:44:06.286Z,59.40
2023-05-26T08:46:37.292Z,59.06
2023-05-26T08:49:21.457Z,59.49
2023-05-26T08:52:20.326Z,59.64
2023-05-26T08:54:50.021Z,59.78
2023-05-26T08:57:20.829Z,58.70
2023-05-26T08:59:53.637Z,58.42
2023-05-26T09:02:22.668Z,58.84
2023-05-26T09:04:55.309Z,58.82
2023-05-26T09:07:26.261Z,59.02
2023-05-26T09:09:56.073Z,58.77
2023-05-26T09:12:24.016Z,58.90
2023-05-26T09:14:51.497Z,58.77
2023-05-26T09:17:39.957Z,58.77
2023-05-26T09:20:13.172Z,58.97
2023-05-26T09:22:43.576Z,59.50
2023-05-26T09:25:10.910Z,58.90
2023-05-26T09:27:38.532Z,59.58
2023-05-26T09:30:08.620Z,59.99
2023-05-26T09:32:36.715Z,60.03
2023-05-26T09:35:16.167Z,60.24
2023-05-26T09:37:44.705Z,60.75
2023-05-26T09:40:28.643Z,60.71
2023-05-26T09:42:56.426Z,60.63
2023-05-26T09:45:44.826Z,60.51
2023-05-26T09:48:58.919Z,60.22
2023-05-26T09:51:38.476Z,60.11
2023-05-26T09:54:06.663Z,59.64
2023-05-26T09:56:45.304Z,59.12
2023-05-26T09:59:36.613Z,58.85
2023-05-26T10:02:36.552Z,58.02
2023-05-26T10:05:08.276Z,57.24
2023-05-26T10:07:38.208Z,56.27
2023-05-26T10:11:05.295Z,55.76
2023-05-26T10:13:53.624Z,55.64
2023-05-26T10:16:23.952Z,55.36
2023-05-26T10:18:51.782Z,54.17
2023-05-26T10:22:01.390Z,53.68
2023-05-26T10:24:37.123Z,53.73
2023-05-26T10:27:12.981Z,53.09
2023-05-26T10:30:03.301Z,53.40
2023-05-26T10:32:52.973Z,53.45
2023-05-26T10:35:25.523Z,53.23
2023-05-26T10:37:57.994Z,53.73
2023-05-26T10:40:35.231Z,54.40
2023-05-26T10:43:12.269Z,54.21
2023-05-26T10:46:00.113Z,54.21
2023-05-26T10:48:37.161Z,53.92
2023-05-26T10:51:04.411Z,53.65
2023-05-26T10:53:34.214Z,53.76
2023-05-26T10:56:10.250Z,53.92
2023-05-26T10:58:52.483Z,54.09
2023-05-26T11:01:30.191Z,54.17
2023-05-26T11:04:10.550Z,54.27
2023-05-26T11:06:52.223Z,54.13
2023-05-26T11:09:24.344Z,53.91
2023-05-26T11:11:57.108Z,54.17
2023-05-26T11:14:35.072Z,53.90
2023-05-26T11:17:06.243Z,53.92
2023-05-26T11:19:37.294Z,54.20
2023-05-26T11:22:24.340Z,54.62
2023-05-26T11:24:52.954Z,54.38
2023-05-26T11:27:20.208Z,54.17
2023-05-26T11:30:51.740Z,53.73
2023-05-26T11:33:23.106Z,53.52
2023-05-26T11:35:51.410Z,52.25
2023-05-26T11:38:20.874Z,52.22
2023-05-26T11:40:51.540Z,51.90
2023-05-26T11:43:25.757Z,50.77
2023-05-26T11:45:56.813Z,50.51
2023-05-26T11:48:25.374Z,50.25
2023-05-26T11:50:55.302Z,50.01
2023-05-26T11:53:24.569Z,50.25
2023-05-26T11:56:02.448Z,50.66
2023-05-26T11:58:29.958Z,50.76
2023-05-26T12:01:02.745Z,50.61
2023-05-26T12:03:35.297Z,51.21
2023-05-26T12:06:18.002Z,51.11
2023-05-26T12:08:56.951Z,50.63
2023-05-26T12:11:37.039Z,50.48
2023-05-26T12:14:07.810Z,50.76
2023-05-26T12:16:57.279Z,50.99
2023-05-26T12:19:29.190Z,50.94
2023-05-26T12:22:01.872Z,50.65
2023-05-26T12:24:35.226Z,50.88
2023-05-26T12:27:13.892Z,50.78
2023-05-26T12:29:44.672Z,50.54
2023-05-26T12:32:13.753Z,50.98
2023-05-26T12:34:45.532Z,50.20
2023-05-26T12:37:13.816Z,50.09
2023-05-26T12:40:04.844Z,50.09
2023-05-26T12:42:57.219Z,50.12
2023-05-26T12:46:09.863Z,50.19
2023-05-26T12:49:02.351Z,50.32
2023-05-26T12:51:36.920Z,49.42
2023-05-26T12:54:07.750Z,49.29
2023-05-26T12:56:47.782Z,49.69
2023-05-26T12:59:32.163Z,50.06
2023-05-26T13:02:00.776Z,50.10
2023-05-26T13:05:04.878Z,48.20
2023-05-26T13:07:54.280Z,48.06
2023-05-26T13:10:33.833Z,48.03
2023-05-26T13:13:22.056Z,47.92
2023-05-26T13:15:50.588Z,47.54
2023-05-26T13:18:22.598Z,47.52
2023-05-26T13:20:50.662Z,47.14
2023-05-26T13:23:18.396Z,47.24
2023-05-26T13:25:47.589Z,47.10
2023-05-26T13:28:15.817Z,46.84
2023-05-26T13:30:49.558Z,47.08
2023-05-26T13:34:07.915Z,46.77
2023-05-26T13:36:37.433Z,47.33
2023-05-26T13:39:50.700Z,47.72
2023-05-26T13:42:38.939Z,47.93
2023-05-26T13:45:10.727Z,47.50
2023-05-26T13:48:31.397Z,47.51
2023-05-26T13:51:09.279Z,48.09
2023-05-26T13:53:39.087Z,48.25
2023-05-26T13:57:11.436Z,47.75
2023-05-26T14:00:39.921Z,47.68
2023-05-26T14:03:53.323Z,47.11
2023-05-26T14:07:14.427Z,46.94
2023-05-26T14:10:34.717Z,46.47
2023-05-26T14:14:02.427Z,46.44
2023-05-26T14:17:07.695Z,46.88
2023-05-26T14:19:50.562Z,47.33
2023-05-26T14:22:31.683Z,46.96
2023-05-26T14:25:40.907Z,46.55
2023-05-26T14:28:28.961Z,46.86
2023-05-26T14:31:16.290Z,46.91
2023-05-26T14:34:28.158Z,47.02
2023-05-26T14:37:40.830Z,47.28
2023-05-26T14:40:22.284Z,47.06
2023-05-26T14:42:53.955Z,46.74
2023-05-26T14:45:21.483Z,46.88
2023-05-26T14:47:51.448Z,46.74
2023-05-26T14:51:00.556Z,46.39
2023-05-26T14:53:31.460Z,46.59
2023-05-26T14:56:05.311Z,46.69
2023-05-26T14:58:43.783Z,46.65
2023-05-26T15:01:12.056Z,46.49
2023-05-26T15:04:00.966Z,46.19
2023-05-26T15:06:32.697Z,46.22
2023-05-26T15:09:00.300Z,46.50
2023-05-26T15:11:28.615Z,46.62
2023-05-26T15:13:56.991Z,46.17
2023-05-26T15:16:25.008Z,45.48
2023-05-26T15:22:11.378Z,44.60
2023-05-26T15:25:17.920Z,44.79
2023-05-26T15:28:09.047Z,44.44
2023-05-26T15:31:25.236Z,44.02
2023-05-26T15:34:02.830Z,43.06
2023-05-26T15:36:58.527Z,42.84
2023-05-26T15:40:25.713Z,43.45
2023-05-26T15:43:34.817Z,43.76
2023-05-26T15:46:51.935Z,43.65
2023-05-26T15:49:59.639Z,43.28
2023-05-26T15:53:23.267Z,42.63
2023-05-26T15:57:02.602Z,42.35
2023-05-26T16:00:48.112Z,41.99
2023-05-26T16:03:22.604Z,41.29
2023-05-26T16:05:53.549Z,39.92
2023-05-26T16:08:42.534Z,39.89
2023-05-26T16:11:18.350Z,39.75
2023-05-26T16:14:45.323Z,39.18
2023-05-26T16:18:15.797Z,39.71
2023-05-26T16:21:47.035Z,40.43
2023-05-26T16:25:14.898Z,40.19
2023-05-26T16:29:02.408Z,39.85
2023-05-26T16:32:29.812Z,40.08
2023-05-26T16:35:57.835Z,39.81
2023-05-26T16:39:24.756Z,38.92
2023-05-26T16:42:56.381Z,39.15
2023-05-26T16:46:34.906Z,39.38
2023-05-26T16:50:02.716Z,39.33
2023-05-26T16:53:49.949Z,39.40
2023-05-26T16:57:37.095Z,39.20
2023-05-26T17:00:52.611Z,38.73
2023-05-26T17:04:19.777Z,39.78
2023-05-26T17:08:06.863Z,39.70
2023-05-26T17:11:53.824Z,40.11
2023-05-26T17:15:21.027Z,40.29
2023-05-26T17:18:46.646Z,40.48
2023-05-26T17:22:13.774Z,40.10
2023-05-26T17:25:41.306Z,40.68
2023-05-26T17:29:28.161Z,40.68
2023-05-26T17:35:24.047Z,40.77
2023-05-26T17:37:53.923Z,40.84
2023-05-26T17:40:23.955Z,41.61
2023-05-26T17:42:51.216Z,41.68
2023-05-26T17:45:18.643Z,41.02
2023-05-26T17:47:46.489Z,41.92
2023-05-26T17:50:55.474Z,41.55
2023-05-26T17:54:23.294Z,40.98
2023-05-26T17:57:23.778Z,41.03
2023-05-26T18:00:23.475Z,41.11
2023-05-26T18:03:53.186Z,41.29
2023-05-26T18:07:02.166Z,41.21
2023-05-26T18:10:30.394Z,41.65
2023-05-26T18:12:59.172Z,41.43
2023-05-26T18:16:02.899Z,41.46
2023-05-26T18:19:26.562Z,42.07
2023-05-26T18:22:54.025Z,42.56
2023-05-26T18:26:21.216Z,43.54
2023-05-26T18:29:46.089Z,44.07
2023-05-26T18:33:15.194Z,44.71
2023-05-26T18:36:30.711Z,44.94
2023-05-26T18:39:12.640Z,45.18
2023-05-26T18:42:02.540Z,45.64
2023-05-26T18:45:05.189Z,45.66
2023-05-26T18:48:22.810Z,45.95
2023-05-26T18:51:30.608Z,46.49
2023-05-26T18:54:40.562Z,47.15
2023-05-26T18:57:57.584Z,47.68
2023-05-26T19:01:25.707Z,47.88
2023-05-26T19:05:12.603Z,48.59
2023-05-26T19:08:21.224Z,48.77
2023-05-26T19:11:48.368Z,49.60
2023-05-26T19:14:43.452Z,50.37
2023-05-26T19:17:11.473Z,50.76
2023-05-26T19:19:41.272Z,51.29
2023-05-26T19:22:15.932Z,51.44
2023-05-26T19:24:48.379Z,51.72
2023-05-26T19:27:16.111Z,51.98
2023-05-26T19:29:45.007Z,52.60
2023-05-26T19:32:17.297Z,52.93
2023-05-26T19:35:03.022Z,53.31
2023-05-26T19:37:41.417Z,53.79
2023-05-26T19:40:20.681Z,54.01
2023-05-26T19:43:11.194Z,54.57
2023-05-26T19:45:47.792Z,54.83
2023-05-26T19:48:56.803Z,55.27
2023-05-26T19:52:03.984Z,55.67
2023-05-26T19:54:31.411Z,55.94
2023-05-26T19:57:43.278Z,56.33
2023-05-26T20:00:58.750Z,56.65
2023-05-26T20:04:10.863Z,57.17
2023-05-26T20:07:05.007Z,57.75
2023-05-26T20:10:04.305Z,58.13
2023-05-26T20:12:51.886Z,58.65
2023-05-26T20:15:50.805Z,58.53
2023-05-26T20:18:38.941Z,59.07
2023-05-26T20:22:06.227Z,59.21
2023-05-26T20:25:34.504Z,59.32
2023-05-26T20:28:23.346Z,59.68
2023-05-26T20:31:14.369Z,60.20
2023-05-26T20:34:27.311Z,60.48
2023-05-26T20:37:21.082Z,60.72
2023-05-26T20:40:33.141Z,61.08
2023-05-26T20:43:52.941Z,61.22
2023-05-26T20:47:15.060Z,61.61
2023-05-26T20:50:42.427Z,61.63
2023-05-26T20:53:52.263Z,62.27
2023-05-26T20:57:01.408Z,62.81
2023-05-26T20:59:53.762Z,64.55
2023-05-26T21:02:46.793Z,64.51
2023-05-26T21:05:25.910Z,63.85
2023-05-26T21:08:17.173Z,63.11
2023-05-26T21:10:45.498Z,62.49
2023-05-26T21:13:21.916Z,61.18
2023-05-26T21:15:59.727Z,60.11
2023-05-26T21:18:34.613Z,59.21
2023-05-26T21:21:04.870Z,59.69
2023-05-26T21:23:54.231Z,60.34
2023-05-26T21:26:24.287Z,60.64
2023-05-26T21:28:51.924Z,60.98
2023-05-26T21:31:43.010Z,61.40
2023-05-26T21:34:29.692Z,61.58
2023-05-26T21:36:59.601Z,62.08
2023-05-26T21:39:51.365Z,62.28
2023-05-26T21:42:44.647Z,63.98
2023-05-26T21:45:17.131Z,65.25
2023-05-26T21:48:07.327Z,64.75
2023-05-26T21:50:46.255Z,64.32
2023-05-26T21:53:17.264Z,63.62
2023-05-26T21:56:12.571Z,63.02
2023-05-26T21:59:06.192Z,62.68
2023-05-26T22:01:35.987Z,61.96
2023-05-26T22:04:04.345Z,61.49
2023-05-26T22:06:33.166Z,61.11
2023-05-26T22:09:00.711Z,60.74
2023-05-26T22:11:28.787Z,59.61
2023-05-26T22:13:56.599Z,59.47
2023-05-26T22:16:24.121Z,60.08
2023-05-26T22:18:51.750Z,60.65
2023-05-26T22:21:19.537Z,61.12
2023-05-26T22:23:47.612Z,61.49
2023-05-26T22:26:15.087Z,62.01
2023-05-26T22:28:43.255Z,63.41
2023-05-26T22:31:10.583Z,64.72
2023-05-26T22:33:37.953Z,64.52
2023-05-26T22:36:05.530Z,64.10
2023-05-26T22:38:32.990Z,63.88
2023-05-26T22:41:01.932Z,63.52
2023-05-26T22:43:29.690Z,63.13
2023-05-26T22:45:57.398Z,62.68
2023-05-26T22:48:25.618Z,62.34
2023-05-26T22:50:54.690Z,61.98
2023-05-26T22:53:22.353Z,61.61
2023-05-26T22:56:00.244Z,61.28
2023-05-26T22:58:33.239Z,61.15
2023-05-26T23:01:01.613Z,60.72
2023-05-26T23:03:29.348Z,59.71
2023-05-26T23:05:57.480Z,59.22
2023-05-26T23:08:24.957Z,59.92
2023-05-26T23:10:52.240Z,60.74
2023-05-26T23:13:22.262Z,61.51
2023-05-26T23:15:49.972Z,62.13
2023-05-26T23:18:17.317Z,63.23
2023-05-26T23:20:45.828Z,65.02
2023-05-26T23:23:14.161Z,64.84
2023-05-26T23:25:42.186Z,64.53
2023-05-26T23:28:09.724Z,64.34
2023-05-26T23:30:38.439Z,64.10
2023-05-26T23:33:05.976Z,63.82
2023-05-26T23:35:33.623Z,63.56
2023-05-26T23:38:03.211Z,63.24
2023-05-26T23:40:31.026Z,62.85
2023-05-26T23:43:00.081Z,62.61
2023-05-26T23:45:28.277Z,62.65
2023-05-26T23:47:56.682Z,62.15
2023-05-26T23:50:24.178Z,62.09
2023-05-26T23:52:51.823Z,61.76
2023-05-26T23:55:19.497Z,61.50
2023-05-26T23:57:48.032Z,61.14
